Time;durP1;ratioP1;P1;durP2;ratioP2;P2;SDS_P1;SDS_P2;PMS_P1;PMS_P2;Temp;Humidity;BMP_temperature;BMP_pressure;BME280_temperature;BME280_humidity;BME280_pressure;Samples;Min_cycle;Max_cycle;Signal;HPM_P1;HPM_P2
2022/05/14 00:02:01;;;;;;;5.73;1.10;;;12.80;99.90;;;;;;5016273;28;20190;-89
2022/05/14 00:04:27;;;;;;;2.13;0.90;;;;;;;;;;5015575;28;20488;-90
2022/05/14 00:06:52;;;;;;;2.63;1.40;;;12.70;99.90;;;;;;5009530;28;20190;-90
2022/05/14 00:09:18;;;;;;;3.37;1.03;;;12.80;99.90;;;;;;5013236;28;20476;-90
2022/05/14 00:14:27;;;;;;;2.65;1.20;;;12.70;99.90;;;;;;5028321;28;20201;-90
2022/05/14 00:16:53;;;;;;;5.97;1.03;;;12.50;99.90;;;;;;5004581;28;20432;-89
2022/05/14 00:19:19;;;;;;;8.40;1.40;;;12.50;99.90;;;;;;5021584;28;20887;-91
2022/05/14 00:21:45;;;;;;;2.28;1.05;;;12.40;99.90;;;;;;5024784;28;20182;-89
2022/05/14 00:24:11;;;;;;;0.90;0.70;;;12.50;99.90;;;;;;5014554;28;20208;-90
2022/05/14 00:26:38;;;;;;;1.40;1.10;;;12.30;99.90;;;;;;5017672;28;20178;-91
2022/05/14 00:29:05;;;;;;;1.50;1.05;;;12.20;99.90;;;;;;5008348;28;20230;-90
2022/05/14 00:31:30;;;;;;;4.18;1.15;;;12.20;99.90;;;;;;5005574;28;20186;-91
2022/05/14 00:33:56;;;;;;;4.13;1.10;;;12.20;99.90;;;;;;5019198;28;20190;-90
2022/05/14 00:36:22;;;;;;;2.30;1.00;;;12.10;99.90;;;;;;5015785;28;20182;-91
2022/05/14 00:38:47;;;;;;;1.73;1.10;;;13.30;99.90;;;;;;5008225;28;20232;-91
2022/05/14 00:41:13;;;;;;;5.97;1.40;;;;;;;;;;5011474;28;20190;-90
2022/05/14 00:43:54;;;;;;;2.60;1.03;;;12.00;99.90;;;;;;5001066;28;20206;-90
2022/05/14 00:46:24;;;;;;;2.35;1.02;;;11.90;99.90;;;;;;5006528;28;20448;-89
2022/05/14 00:48:52;;;;;;;1.73;0.70;;;11.90;99.90;;;;;;5022005;28;20227;-89
2022/05/14 00:51:28;;;;;;;1.10;0.82;;;14.40;99.90;;;;;;5013650;28;20182;-90
2022/05/14 00:54:06;;;;;;;2.15;1.10;;;11.90;99.90;;;;;;5008219;28;20208;-91
2022/05/14 00:56:40;;;;;;;3.60;1.30;;;11.90;99.90;;;;;;5024831;28;20265;-90
2022/05/14 00:59:13;;;;;;;2.15;1.30;;;11.80;99.90;;;;;;5022711;23;20250;-83
2022/05/14 01:01:39;;;;;;;1.80;1.30;;;11.90;99.90;;;;;;4992113;28;20237;-83
2022/05/14 01:04:06;;;;;;;1.83;0.88;;;11.80;99.90;;;;;;5003042;28;20240;-83
2022/05/14 01:06:33;;;;;;;1.10;1.00;;;11.70;99.90;;;;;;4995962;28;20381;-83
2022/05/14 01:08:59;;;;;;;1.60;0.80;;;11.80;99.90;;;;;;4995478;28;20182;-84
2022/05/14 01:11:27;;;;;;;3.27;1.60;;;11.80;99.90;;;;;;5001586;28;20799;-84
2022/05/14 01:13:53;;;;;;;1.27;0.82;;;11.60;99.90;;;;;;5009167;28;20422;-84
2022/05/14 01:16:20;;;;;;;2.50;0.80;;;11.60;99.90;;;;;;4988006;28;20193;-84
2022/05/14 01:18:46;;;;;;;1.90;0.88;;;11.40;99.90;;;;;;4998795;28;20186;-83
2022/05/14 01:21:40;;;;;;;4.50;1.20;;;11.40;99.90;;;;;;4999026;28;20562;-83
2022/05/14 01:27:07;;;;;;;3.90;1.30;;;11.30;99.90;;;;;;5017548;28;20213;-83
2022/05/14 01:29:34;;;;;;;3.40;1.43;;;11.20;99.90;;;;;;5015574;28;20166;-82
2022/05/14 01:32:00;;;;;;;2.20;0.95;;;11.20;99.90;;;;;;5005660;28;20185;-82
2022/05/14 01:34:30;;;;;;;1.80;1.35;;;11.10;99.90;;;;;;4982420;28;20210;-83
2022/05/14 01:36:57;;;;;;;5.07;1.13;;;11.10;99.90;;;;;;4996043;28;20182;-85
2022/05/14 01:39:23;;;;;;;1.77;1.15;;;11.00;99.90;;;;;;5003910;28;20224;-83
2022/05/14 01:41:49;;;;;;;5.30;1.07;;;11.10;99.90;;;;;;5005203;28;20187;-85
2022/05/14 01:44:14;;;;;;;2.83;1.37;;;11.10;99.90;;;;;;5000097;28;20597;-80
2022/05/14 01:46:40;;;;;;;2.13;1.10;;;11.10;99.90;;;;;;5002652;28;20186;-85
2022/05/14 01:49:05;;;;;;;2.00;0.70;;;10.90;99.90;;;;;;4999230;28;20186;-84
2022/05/14 01:51:31;;;;;;;2.60;1.57;;;10.90;99.90;;;;;;4980645;28;20186;-82
2022/05/14 01:53:57;;;;;;;8.90;1.63;;;10.80;99.90;;;;;;4991367;28;20459;-84
2022/05/14 01:56:23;;;;;;;3.13;1.33;;;10.60;99.90;;;;;;4990102;28;20449;-84
2022/05/14 01:58:49;;;;;;;3.03;0.90;;;10.50;99.90;;;;;;4983722;28;20452;-84
2022/05/14 02:01:16;;;;;;;6.97;1.23;;;10.40;99.90;;;;;;4985566;28;20182;-83
2022/05/14 02:03:45;;;;;;;3.20;1.10;;;10.30;99.90;;;;;;5001677;28;20218;-82
2022/05/14 02:06:11;;;;;;;1.77;1.20;;;10.30;99.90;;;;;;4983981;28;20256;-84
2022/05/14 02:08:37;;;;;;;1.52;1.05;;;10.30;99.90;;;;;;4998979;28;20186;-83
2022/05/14 02:11:03;;;;;;;1.00;0.90;;;10.20;99.90;;;;;;4996218;28;20281;-84
2022/05/14 02:13:29;;;;;;;7.20;1.17;;;10.10;99.90;;;;;;5003702;28;20441;-84
2022/05/14 02:15:55;;;;;;;2.33;1.10;;;10.10;99.90;;;;;;5001314;28;20889;-84
2022/05/14 02:18:21;;;;;;;2.78;1.17;;;10.10;99.90;;;;;;4998462;28;20437;-82
2022/05/14 02:20:47;;;;;;;6.18;2.00;;;10.10;99.90;;;;;;5008964;28;20207;-80
2022/05/14 02:23:12;;;;;;;2.47;1.00;;;10.20;99.90;;;;;;4990655;28;20229;-83
2022/05/14 02:25:40;;;;;;;1.30;1.00;;;10.30;99.90;;;;;;5006399;28;20523;-84
2022/05/14 02:28:06;;;;;;;1.75;0.93;;;10.20;99.90;;;;;;5007592;28;20951;-81
2022/05/14 02:30:31;;;;;;;1.27;1.17;;;10.20;99.90;;;;;;5001170;28;20269;-83
2022/05/14 02:32:57;;;;;;;5.10;1.10;;;10.20;99.90;;;;;;5001227;28;21661;-83
2022/05/14 02:35:23;;;;;;;4.30;1.43;;;10.20;99.90;;;;;;5000713;28;20210;-81
2022/05/14 02:40:26;;;;;;;1.42;1.10;;;10.20;99.90;;;;;;5008670;28;20416;-85
2022/05/14 02:42:52;;;;;;;3.83;0.98;;;10.20;99.90;;;;;;4995466;28;20333;-85
2022/05/14 02:45:18;;;;;;;2.50;1.03;;;10.30;99.90;;;;;;4996596;28;20257;-86
2022/05/14 02:47:43;;;;;;;1.23;0.80;;;10.30;99.90;;;;;;5020286;28;20178;-87
2022/05/14 02:50:10;;;;;;;3.07;1.13;;;11.60;99.90;;;;;;5006730;28;20222;-87
2022/05/14 02:52:36;;;;;;;5.15;1.50;;;11.60;99.90;;;;;;5016189;28;20175;-87
2022/05/14 02:55:03;;;;;;;5.82;1.00;;;10.30;99.90;;;;;;4996240;28;20210;-86
2022/05/14 02:57:28;;;;;;;4.78;0.98;;;10.20;99.90;;;;;;5003950;28;20186;-82
2022/05/14 02:59:54;;;;;;;4.90;1.43;;;12.00;99.90;;;;;;4988276;28;20257;-83
2022/05/14 03:02:20;;;;;;;4.07;1.37;;;10.20;99.90;;;;;;5003336;28;20230;-86
2022/05/14 03:04:48;;;;;;;2.00;1.40;;;10.20;99.90;;;;;;4989517;28;21053;-84
2022/05/14 03:07:15;;;;;;;4.55;1.40;;;11.80;99.90;;;;;;4992368;28;20646;-84
2022/05/14 03:09:41;;;;;;;3.05;1.00;;;10.20;99.90;;;;;;5006776;28;20198;-85
2022/05/14 03:12:09;;;;;;;1.83;1.30;;;10.10;99.90;;;;;;5018611;28;20186;-87
2022/05/14 03:14:34;;;;;;;7.45;1.30;;;10.00;99.90;;;;;;5012457;28;20237;-88
2022/05/14 03:17:00;;;;;;;5.03;1.53;;;10.00;99.90;;;;;;4997872;28;20625;-86
2022/05/14 03:19:26;;;;;;;3.50;2.60;;;10.00;99.90;;;;;;4998219;28;20199;-86
2022/05/14 03:21:52;;;;;;;3.43;2.20;;;9.80;99.90;;;;;;4997624;28;20428;-85
2022/05/14 03:24:19;;;;;;;6.27;2.10;;;9.70;99.90;;;;;;4997049;28;20599;-85
2022/05/14 03:26:45;;;;;;;4.57;2.20;;;9.60;99.90;;;;;;4997623;28;20410;-85
2022/05/14 03:29:11;;;;;;;3.15;1.90;;;9.50;99.90;;;;;;4996841;28;20254;-87
2022/05/14 03:31:37;;;;;;;7.50;2.50;;;9.40;99.90;;;;;;4996635;28;20540;-86
2022/05/14 03:34:04;;;;;;;4.93;2.88;;;9.40;99.90;;;;;;4999253;28;20182;-86
2022/05/14 03:36:30;;;;;;;4.00;2.25;;;9.30;99.90;;;;;;5018021;28;20201;-85
2022/05/14 03:38:56;;;;;;;3.83;2.70;;;9.20;99.90;;;;;;5000408;28;20229;-85
2022/05/14 03:41:22;;;;;;;2.75;2.20;;;9.10;99.90;;;;;;4998752;28;20225;-86
2022/05/14 03:43:49;;;;;;;5.03;2.78;;;9.10;99.90;;;;;;5016953;28;20282;-87
2022/05/14 03:46:14;;;;;;;4.97;2.55;;;9.10;99.90;;;;;;5016699;28;20221;-84
2022/05/14 03:48:40;;;;;;;4.77;2.07;;;9.10;99.90;;;;;;5017518;28;20192;-87
2022/05/14 03:51:07;;;;;;;1.65;1.55;;;9.00;99.90;;;;;;4998773;28;20266;-87
2022/05/14 03:53:33;;;;;;;5.78;2.22;;;8.90;99.90;;;;;;4999399;28;20179;-88
2022/05/14 03:55:58;;;;;;;5.80;2.10;;;9.00;99.90;;;;;;4999914;28;20218;-89
2022/05/14 03:58:24;;;;;;;6.23;2.00;;;9.10;99.90;;;;;;5000426;28;20190;-87
2022/05/14 04:00:50;;;;;;;4.83;2.40;;;9.30;99.90;;;;;;4999821;28;20205;-89
2022/05/14 04:03:16;;;;;;;2.63;1.90;;;9.40;99.90;;;;;;5017458;28;20682;-87
2022/05/14 04:05:42;;;;;;;5.20;2.50;;;9.40;99.90;;;;;;4999821;28;20175;-84
2022/05/14 04:08:10;;;;;;;1.90;1.80;;;9.50;99.90;;;;;;5000115;28;20540;-85
2022/05/14 04:10:35;;;;;;;6.30;2.95;;;9.40;99.90;;;;;;5016996;28;20652;-84
2022/05/14 04:13:02;;;;;;;2.90;1.80;;;9.50;99.90;;;;;;5017475;28;20174;-87
2022/05/14 04:15:28;;;;;;;5.93;2.10;;;10.80;99.90;;;;;;4999433;28;20247;-87
2022/05/14 04:17:55;;;;;;;3.10;1.83;;;9.70;99.90;;;;;;5017252;28;20195;-88
2022/05/14 04:20:21;;;;;;;3.25;2.40;;;9.80;99.90;;;;;;5016511;28;20441;-85
2022/05/14 04:22:48;;;;;;;4.60;2.25;;;9.90;99.90;;;;;;5016187;28;20806;-84
2022/05/14 04:25:13;;;;;;;3.47;2.00;;;9.90;99.90;;;;;;5015592;28;20175;-83
2022/05/14 04:27:44;;;;;;;7.47;2.60;;;10.00;99.90;;;;;;5018011;28;20209;-90
2022/05/14 04:30:11;;;;;;;4.55;2.40;;;9.70;99.90;;;;;;5001986;28;20437;-88
2022/05/14 04:32:38;;;;;;;2.60;2.35;;;10.90;99.90;;;;;;5000000;28;20702;-89
2022/05/14 04:35:04;;;;;;;3.90;2.05;;;12.90;99.90;;;;;;5000485;28;20171;-88
2022/05/14 04:37:30;;;;;;;3.20;2.10;;;15.20;99.90;;;;;;5015799;28;20174;-84
2022/05/14 04:39:56;;;;;;;2.40;2.00;;;17.70;99.90;;;;;;4998676;28;20292;-80
2022/05/14 04:42:21;;;;;;;2.90;1.80;;;19.70;99.90;;;;;;4998548;28;20181;-83
2022/05/14 04:44:47;;;;;;;7.20;2.70;;;21.00;99.90;;;;;;4999339;28;20204;-84
2022/05/14 04:47:14;;;;;;;3.23;2.20;;;22.00;99.90;;;;;;4998078;28;20171;-83
2022/05/14 04:49:43;;;;;;;4.77;2.23;;;23.10;99.90;;;;;;5015584;28;20217;-86
2022/05/14 04:52:09;;;;;;;3.83;2.50;;;24.30;95.30;;;;;;4997819;28;20445;-86
2022/05/14 04:54:35;;;;;;;3.90;2.30;;;24.80;92.00;;;;;;4998649;28;20468;-84
2022/05/14 04:57:01;;;;;;;9.23;3.13;;;26.20;90.90;;;;;;5016589;28;20421;-84
2022/05/14 04:59:27;;;;;;;4.07;2.67;;;27.00;86.10;;;;;;4997589;28;20433;-80
2022/05/14 05:04:41;;;;;;;6.10;2.37;;;29.80;72.70;;;;;;5015890;28;20238;-84
2022/05/14 05:07:07;;;;;;;4.10;2.50;;;31.00;65.00;;;;;;5016028;28;20413;-84
2022/05/14 05:09:33;;;;;;;7.70;2.53;;;;;;;;;;5019032;28;20440;-83
2022/05/14 05:11:59;;;;;;;4.27;3.00;;;;;;;;;;5019088;28;20239;-84
2022/05/14 05:14:26;;;;;;;5.17;2.73;;;29.80;55.70;;;;;;5018909;28;20984;-86
2022/05/14 05:16:51;;;;;;;4.10;3.10;;;29.20;56.20;;;;;;5031380;28;20417;-84
2022/05/14 05:19:18;;;;;;;6.67;2.83;;;29.70;56.80;;;;;;5014496;28;20483;-85
2022/05/14 05:21:43;;;;;;;18.33;3.63;;;29.70;57.40;;;;;;4996115;28;20278;-85
2022/05/14 05:24:10;;;;;;;6.93;3.47;;;31.30;56.40;;;;;;5009130;28;21021;-88
2022/05/14 05:26:36;;;;;;;5.27;3.57;;;;;;;;;;4995818;28;20186;-85
2022/05/14 05:29:04;;;;;;;5.60;4.40;;;34.20;50.10;;;;;;4997335;28;20812;-88
2022/05/14 05:31:31;;;;;;;5.80;5.23;;;33.40;48.20;;;;;;5004044;28;21090;-87
2022/05/14 05:33:57;;;;;;;5.60;5.10;;;;;;;;;;4994102;28;20446;-81
2022/05/14 05:36:22;;;;;;;5.90;4.80;;;33.30;46.80;;;;;;5002997;28;20426;-82
2022/05/14 05:38:48;;;;;;;5.60;5.20;;;33.70;47.90;;;;;;5007101;28;20489;-79
2022/05/14 05:41:13;;;;;;;7.00;6.50;;;34.60;46.80;;;;;;4983442;28;20222;-84
2022/05/14 05:43:39;;;;;;;7.57;6.80;;;35.90;45.90;;;;;;5008584;28;20209;-82
2022/05/14 05:46:04;;;;;;;7.57;7.13;;;35.90;43.40;;;;;;5000908;28;20242;-82
2022/05/14 05:48:30;;;;;;;7.00;6.50;;;34.20;43.00;;;;;;4994935;28;20235;-82
2022/05/14 05:50:55;;;;;;;7.10;6.40;;;33.10;44.80;;;;;;5003983;28;20184;-81
2022/05/14 05:56:46;;;;;;;8.27;5.57;;;33.00;46.60;;;;;;5006173;28;20567;-88
2022/05/14 05:58:51;;;;;;;6.17;5.67;;;34.40;45.60;;;;;;5007002;28;20843;-85
2022/05/14 06:01:16;;;;;;;8.03;7.53;;;36.90;42.60;;;;;;5002223;28;20447;-87
2022/05/14 06:03:42;;;;;;;10.17;9.47;;;39.00;39.00;;;;;;4982850;28;20216;-84
2022/05/14 06:06:07;;;;;;;9.13;8.53;;;37.40;38.80;;;;;;5002606;28;20180;-86
2022/05/14 06:08:33;;;;;;;9.70;8.90;;;34.10;40.90;;;;;;5004466;28;20290;-85
2022/05/14 06:10:58;;;;;;;9.23;8.40;;;32.10;43.60;;;;;;5002938;28;20208;-86
2022/05/14 06:13:24;;;;;;;7.23;6.60;;;31.10;46.40;;;;;;5009544;28;20187;-87
2022/05/14 06:15:49;;;;;;;7.60;6.77;;;31.10;47.10;;;;;;4992127;28;20207;-87
2022/05/14 06:18:15;;;;;;;7.33;6.73;;;34.10;45.70;;;;;;4988559;28;20185;-82
2022/05/14 06:20:41;;;;;;;8.30;7.70;;;34.00;46.20;;;;;;4988914;28;20187;-82
2022/05/14 06:23:08;;;;;;;7.60;7.10;;;35.50;44.20;;;;;;4991461;28;20187;-87
2022/05/14 06:25:33;;;;;;;8.33;7.83;;;36.80;42.60;;;;;;4995110;28;20181;-87
2022/05/14 06:27:59;;;;;;;8.87;8.37;;;36.80;40.60;;;;;;4999718;28;20434;-86
2022/05/14 06:30:24;;;;;;;10.70;9.90;;;37.70;40.10;;;;;;5007594;28;20670;-85
2022/05/14 06:32:50;;;;;;;11.00;9.93;;;38.40;38.40;;;;;;4994020;28;21086;-84
2022/05/14 06:35:16;;;;;;;12.13;11.43;;;;;;;;;;5012856;28;20231;-81
2022/05/14 06:37:41;;;;;;;12.57;11.97;;;40.20;35.60;;;;;;4995993;28;20175;-84
2022/05/14 06:40:07;;;;;;;13.23;12.33;;;41.10;34.90;;;;;;4988596;28;20494;-85
2022/05/14 06:42:36;;;;;;;14.30;13.37;;;41.30;32.30;;;;;;5000971;28;20202;-86
2022/05/14 06:45:02;;;;;;;14.67;13.60;;;;;;;;;;5002248;28;20520;-86
2022/05/14 06:47:28;;;;;;;14.30;13.60;;;;;;;;;;4997392;28;20438;-87
2022/05/14 06:49:54;;;;;;;13.27;12.60;;;;;;;;;;5000011;28;20448;-89
2022/05/14 06:52:20;;;;;;;13.63;12.93;;;;;;;;;;4995058;28;20459;-87
2022/05/14 06:54:50;;;;;;;13.47;12.80;;;36.60;35.50;;;;;;4989827;28;20498;-88
2022/05/14 06:57:15;;;;;;;13.80;12.47;;;38.10;37.10;;;;;;4980353;28;20434;-90
2022/05/14 06:59:41;;;;;;;13.37;12.50;;;39.00;36.10;;;;;;5016923;28;20439;-85
2022/05/14 07:02:10;;;;;;;13.07;12.07;;;40.40;34.50;;;;;;5015736;28;20178;-83
2022/05/14 07:07:20;;;;;;;12.83;12.03;;;;;;;;;;5011359;28;20507;-84
2022/05/14 07:09:49;;;;;;;14.00;13.07;;;;;;;;;;5015424;28;20429;-84
2022/05/14 07:12:15;;;;;;;14.73;13.83;;;41.40;29.80;;;;;;5002728;28;20476;-84
2022/05/14 07:14:43;;;;;;;14.60;13.60;;;40.10;29.70;;;;;;5020233;28;20444;-84
2022/05/14 07:17:09;;;;;;;13.57;12.97;;;39.70;30.00;;;;;;5011570;28;20421;-83
2022/05/14 07:19:37;;;;;;;14.30;13.50;;;39.90;29.90;;;;;;5017560;28;20445;-83
2022/05/14 07:22:03;;;;;;;14.00;13.20;;;38.60;29.60;;;;;;5013524;28;20512;-83
2022/05/14 07:24:30;;;;;;;13.83;13.03;;;38.30;30.00;;;;;;4996061;28;20467;-84
2022/05/14 07:26:58;;;;;;;14.67;13.30;;;38.10;31.70;;;;;;5021162;28;20432;-83
2022/05/14 07:29:25;;;;;;;13.40;12.70;;;38.70;30.40;;;;;;5020954;28;20425;-81
2022/05/14 07:31:52;;;;;;;13.93;13.03;;;38.60;30.80;;;;;;5020880;28;20425;-84
2022/05/14 07:34:18;;;;;;;14.13;13.30;;;37.10;29.90;;;;;;5020998;28;20414;-84
2022/05/14 07:37:29;;;;;;;14.50;13.70;;;37.60;31.60;;;;;;5021185;28;20493;-84
2022/05/14 07:39:59;;;;;;;15.67;14.40;;;38.40;31.10;;;;;;5003875;28;20547;-83
2022/05/14 07:42:30;;;;;;;28.40;16.37;;;36.50;32.00;;;;;;5019581;28;20432;-86
2022/05/14 07:44:59;;;;;;;26.20;20.50;;;36.00;33.10;;;;;;5014786;28;20580;-81
2022/05/14 07:47:26;;;;;;;35.03;20.30;;;36.60;33.00;;;;;;5016234;28;20924;-84
2022/05/14 07:49:52;;;;;;;15.20;14.17;;;35.60;33.30;;;;;;5020134;28;20441;-83
2022/05/14 07:52:19;;;;;;;16.20;13.40;;;33.70;34.30;;;;;;5018331;28;20446;-84
2022/05/14 07:54:45;;;;;;;30.80;17.03;;;33.80;36.60;;;;;;5018010;28;20466;-84
2022/05/14 07:57:11;;;;;;;21.67;14.77;;;;;;;;;;5021767;28;20425;-84
2022/05/14 07:59:37;;;;;;;23.40;15.60;;;36.00;34.60;;;;;;5014760;28;20818;-82
2022/05/14 08:02:18;;;;;;;36.73;15.97;;;36.70;34.60;;;;;;5015628;28;20457;-82
2022/05/14 08:04:44;;;;;;;13.27;12.50;;;35.70;33.50;;;;;;5019748;28;20239;-83
2022/05/14 08:07:09;;;;;;;12.80;11.83;;;35.20;35.70;;;;;;5016638;28;20500;-82
2022/05/14 08:09:35;;;;;;;15.53;14.07;;;36.30;36.80;;;;;;5020047;28;20196;-83
2022/05/14 08:12:00;;;;;;;16.80;14.30;;;36.40;34.00;;;;;;5019741;28;20167;-84
2022/05/14 08:14:26;;;;;;;14.13;13.10;;;35.50;34.90;;;;;;5018995;28;20189;-83
2022/05/14 08:16:52;;;;;;;12.27;11.77;;;34.20;34.30;;;;;;5000306;28;20282;-85
2022/05/14 08:19:17;;;;;;;16.97;13.83;;;32.90;36.30;;;;;;5016802;28;20457;-84
2022/05/14 08:24:30;;;;;;;10.70;10.00;;;31.30;39.00;;;;;;5017037;28;20202;-84
2022/05/14 08:26:59;;;;;;;14.60;11.30;;;30.60;39.20;;;;;;4998779;28;20433;-85
2022/05/14 08:29:25;;;;;;;9.00;8.10;;;30.20;40.20;;;;;;5013498;28;20449;-84
2022/05/14 08:31:50;;;;;;;6.33;5.77;;;29.30;41.40;;;;;;5010673;28;20425;-86
2022/05/14 08:34:17;;;;;;;6.57;6.13;;;27.60;43.60;;;;;;4997179;28;20176;-84
2022/05/14 08:36:42;;;;;;;6.60;6.13;;;29.20;44.30;;;;;;5016209;28;20188;-84
2022/05/14 08:39:10;;;;;;;5.70;5.20;;;28.10;42.90;;;;;;5012697;28;20466;-84
2022/05/14 08:41:39;;;;;;;5.67;4.37;;;27.70;44.00;;;;;;4995454;28;20434;-84
2022/05/14 08:44:15;;;;;;;7.93;3.43;;;26.10;45.90;;;;;;5009640;28;20487;-84
2022/05/14 08:46:43;;;;;;;4.20;2.93;;;25.60;46.80;;;;;;5008795;28;20459;-85
2022/05/14 08:49:26;;;;;;;5.30;2.73;;;25.70;48.30;;;;;;5012873;28;20869;-82
2022/05/14 08:51:52;;;;;;;6.87;3.30;;;26.30;48.30;;;;;;5002043;28;20443;-82
2022/05/14 08:54:19;;;;;;;8.23;3.30;;;26.30;48.80;;;;;;5011768;28;20436;-83
2022/05/14 08:57:00;;;;;;;4.90;2.70;;;26.50;46.80;;;;;;5013577;28;20481;-81
2022/05/14 08:59:47;;;;;;;8.23;3.23;;;27.70;47.50;;;;;;5008967;28;20442;-84
2022/05/14 09:02:39;;;;;;;5.60;3.43;;;27.60;44.40;;;;;;5011624;28;20427;-85
2022/05/14 09:05:16;;;;;;;9.20;3.30;;;26.90;45.90;;;;;;5015584;28;20557;-83
2022/05/14 09:07:43;;;;;;;13.03;3.90;;;27.50;46.70;;;;;;5008652;28;20946;-83
2022/05/14 09:10:30;;;;;;;5.53;3.37;;;27.30;45.20;;;;;;4996474;28;20559;-81
2022/05/14 09:13:08;;;;;;;5.70;3.03;;;26.50;46.80;;;;;;4995754;28;20425;-84
2022/05/14 09:15:34;;;;;;;4.80;3.13;;;26.90;47.00;;;;;;5008980;28;20450;-84
2022/05/14 09:18:25;;;;;;;5.10;3.30;;;27.20;46.00;;;;;;5007705;28;20426;-82
2022/05/14 09:20:56;;;;;;;4.40;3.33;;;26.90;46.20;;;;;;4998639;28;20438;-83
2022/05/14 09:23:46;;;;;;;5.83;3.33;;;27.00;46.40;;;;;;5007511;28;20461;-83
2022/05/14 09:26:19;;;;;;;6.10;3.90;;;27.00;46.40;;;;;;4992491;28;21189;-83
2022/05/14 09:28:48;;;;;;;3.13;2.90;;;27.40;46.30;;;;;;4978844;28;20431;-83
2022/05/14 09:31:29;;;;;;;3.93;3.17;;;28.70;47.30;;;;;;4985054;28;20419;-82
2022/05/14 09:34:11;;;;;;;4.43;4.00;;;28.10;47.40;;;;;;4992309;28;20527;-83
2022/05/14 09:36:38;;;;;;;8.33;4.77;;;29.80;44.40;;;;;;5014761;28;20404;-84
2022/05/14 09:39:09;;;;;;;9.43;5.20;;;30.30;43.80;;;;;;4998920;28;20547;-83
2022/05/14 09:41:41;;;;;;;5.90;5.40;;;30.50;41.70;;;;;;4985680;28;20802;-83
2022/05/14 09:44:12;;;;;;;6.83;5.00;;;29.20;43.30;;;;;;5014907;28;20457;-84
2022/05/14 09:46:37;;;;;;;6.13;4.70;;;29.30;43.90;;;;;;4999993;28;20461;-83
2022/05/14 09:49:06;;;;;;;5.50;5.00;;;29.40;42.60;;;;;;5017401;28;20441;-83
2022/05/14 09:51:33;;;;;;;4.80;4.50;;;28.10;42.80;;;;;;4998929;28;20185;-82
2022/05/14 09:54:30;;;;;;;5.23;4.93;;;27.20;45.20;;;;;;4999495;28;20413;-83
2022/05/14 09:57:09;;;;;;;12.33;3.40;;;26.70;45.30;;;;;;5002343;28;20418;-82
2022/05/14 09:59:39;;;;;;;6.37;3.73;;;26.70;45.80;;;;;;5017257;28;20995;-84
2022/05/14 10:02:10;;;;;;;5.97;3.57;;;26.50;46.00;;;;;;5016396;28;20411;-83
2022/05/14 10:04:47;;;;;;;3.27;3.07;;;26.70;47.90;;;;;;5019913;28;20450;-83
2022/05/14 10:07:17;;;;;;;3.70;3.50;;;27.40;45.70;;;;;;4998781;28;20406;-83
2022/05/14 10:09:55;;;;;;;4.13;3.80;;;27.40;46.20;;;;;;4998092;28;20429;-85
2022/05/14 10:12:27;;;;;;;4.97;3.30;;;27.60;48.10;;;;;;5007146;28;20439;-82
2022/05/14 10:15:14;;;;;;;5.73;3.33;;;27.00;48.70;;;;;;4995520;28;20439;-81
2022/05/14 10:18:07;;;;;;;4.10;3.80;;;27.80;47.80;;;;;;4995861;28;20403;-83
2022/05/14 10:21:11;;;;;;;4.73;3.30;;;27.10;47.50;;;;;;4998652;28;20442;-84
2022/05/14 10:26:49;;;;;;;6.67;2.80;;;25.70;49.30;;;;;;5016535;28;20459;-84
2022/05/14 10:29:30;;;;;;;8.43;3.10;;;23.80;52.30;;;;;;4998685;28;20444;-83
2022/05/14 10:32:01;;;;;;;5.63;2.70;;;23.20;52.40;;;;;;4998633;28;20433;-82
2022/05/14 10:34:52;;;;;;;5.77;2.17;;;22.60;55.30;;;;;;5016771;28;20431;-82
2022/05/14 10:37:48;;;;;;;36.27;23.07;;;22.50;59.50;;;;;;4994302;28;20425;-81
2022/05/14 10:40:35;;;;;;;3.30;2.30;;;22.90;56.40;;;;;;4994187;28;20460;-82
2022/05/14 10:43:37;;;;;;;6.70;2.53;;;22.50;57.10;;;;;;4993238;28;20420;-83
2022/05/14 10:46:09;;;;;;;2.80;1.70;;;22.40;57.20;;;;;;4997200;28;20532;-84
2022/05/14 10:48:46;;;;;;;4.87;2.30;;;22.50;56.30;;;;;;5017701;28;20891;-85
2022/05/14 10:51:24;;;;;;;8.07;1.87;;;22.10;55.90;;;;;;5026061;28;20428;-82
2022/05/14 10:53:50;;;;;;;4.60;2.03;;;;;;;;;;5000783;28;20409;-83
2022/05/14 10:56:28;;;;;;;3.73;2.20;;;22.30;55.30;;;;;;5018311;28;20440;-82
2022/05/14 10:59:13;;;;;;;4.47;2.00;;;22.20;55.30;;;;;;5000063;28;20703;-83
2022/05/14 11:01:54;;;;;;;5.53;2.43;;;22.20;55.10;;;;;;5007468;28;20409;-84
2022/05/14 11:04:23;;;;;;;5.47;2.10;;;22.20;56.00;;;;;;5000382;28;20499;-82
2022/05/14 11:07:16;;;;;;;5.30;1.87;;;22.20;56.00;;;;;;4999663;28;20437;-83
2022/05/14 11:09:47;;;;;;;2.10;1.90;;;22.10;54.90;;;;;;5011303;28;20845;-83
2022/05/14 11:12:18;;;;;;;4.10;1.70;;;22.40;55.70;;;;;;5001995;28;20413;-83
2022/05/14 11:14:47;;;;;;;7.53;2.20;;;22.40;56.10;;;;;;5000882;28;20417;-84
2022/05/14 11:17:25;;;;;;;2.40;1.63;;;22.40;55.20;;;;;;5001741;28;20539;-84
2022/05/14 11:20:04;;;;;;;11.47;2.03;;;22.40;57.90;;;;;;4999862;28;21208;-85
2022/05/14 11:22:46;;;;;;;3.13;1.50;;;22.40;53.40;;;;;;4997000;28;20443;-83
2022/05/14 11:25:20;;;;;;;2.63;1.80;;;22.30;53.90;;;;;;4998379;28;20925;-83
2022/05/14 11:27:57;;;;;;;2.70;2.00;;;22.40;53.40;;;;;;5010180;28;20777;-84
2022/05/14 11:30:32;;;;;;;6.60;2.63;;;22.20;53.00;;;;;;4997937;28;20449;-84
2022/05/14 11:32:58;;;;;;;3.20;1.87;;;22.10;52.30;;;;;;5000044;28;20468;-82
2022/05/14 11:35:40;;;;;;;3.50;1.93;;;21.30;52.10;;;;;;4999532;28;20814;-82
2022/05/14 11:38:16;;;;;;;2.80;2.00;;;22.80;53.10;;;;;;4995056;28;20426;-85
2022/05/14 11:40:42;;;;;;;3.33;2.10;;;22.80;53.70;;;;;;5010435;28;20449;-83
2022/05/14 11:43:28;;;;;;;4.27;2.17;;;23.10;52.30;;;;;;5016235;28;20440;-82
2022/05/14 11:46:06;;;;;;;4.40;2.20;;;22.90;51.60;;;;;;5018528;28;20401;-81
2022/05/14 11:48:44;;;;;;;5.43;1.90;;;22.70;51.30;;;;;;5001063;28;20437;-84
2022/05/14 11:51:41;;;;;;;2.90;2.00;;;22.60;52.70;;;;;;5017982;28;20401;-81
2022/05/14 11:54:16;;;;;;;5.10;2.03;;;22.60;53.20;;;;;;5001764;28;20449;-82
2022/05/14 11:56:57;;;;;;;3.60;2.13;;;22.60;50.90;;;;;;5015057;28;20514;-84
2022/05/14 11:59:44;;;;;;;3.93;1.77;;;22.60;51.20;;;;;;5018046;28;20436;-84
2022/05/14 12:02:34;;;;;;;3.33;1.73;;;22.80;52.30;;;;;;5017758;28;20934;-83
2022/05/14 12:05:03;;;;;;;1.97;1.77;;;22.60;51.70;;;;;;4993376;28;20527;-84
2022/05/14 12:07:41;;;;;;;2.03;1.83;;;22.80;51.90;;;;;;4998693;28;21096;-83
2022/05/14 12:10:29;;;;;;;3.27;2.23;;;23.00;50.80;;;;;;4982795;28;20449;-83
2022/05/14 12:13:09;;;;;;;4.03;2.50;;;22.80;48.80;;;;;;4997051;28;20457;-84
2022/05/14 12:15:35;;;;;;;2.80;2.00;;;22.70;48.90;;;;;;4981561;28;20418;-84
2022/05/14 12:18:02;;;;;;;4.70;2.67;;;22.90;49.80;;;;;;4982034;28;20784;-82
2022/05/14 12:20:32;;;;;;;3.53;2.20;;;23.00;51.20;;;;;;4999320;28;20434;-83
2022/05/14 12:23:17;;;;;;;3.10;1.70;;;23.20;50.50;;;;;;4999074;28;20391;-84
2022/05/14 12:25:45;;;;;;;3.30;1.80;;;22.90;50.40;;;;;;4980907;28;20775;-84
2022/05/14 12:28:30;;;;;;;2.70;2.20;;;22.90;47.50;;;;;;4980064;28;20426;-85
2022/05/14 12:34:04;;;;;;;4.00;2.10;;;23.10;48.60;;;;;;5008719;28;20421;-86
2022/05/14 12:36:37;;;;;;;3.00;2.30;;;23.20;49.00;;;;;;5009004;28;20429;-83
2022/05/14 12:39:09;;;;;;;3.50;2.10;;;25.10;49.80;;;;;;5001079;28;21055;-84
2022/05/14 12:41:41;;;;;;;3.50;1.70;;;23.50;47.20;;;;;;4998783;28;20479;-82
2022/05/14 12:44:23;;;;;;;5.10;2.17;;;23.90;48.50;;;;;;4984056;28;20532;-86
2022/05/14 12:46:56;;;;;;;3.30;1.70;;;23.30;47.20;;;;;;4996883;28;20508;-82
2022/05/14 12:49:28;;;;;;;2.40;1.83;;;23.40;47.10;;;;;;5017120;28;20437;-85
2022/05/14 12:51:57;;;;;;;3.40;1.97;;;23.40;47.50;;;;;;5002721;28;20457;-93
2022/05/14 12:54:28;;;;;;;2.63;2.43;;;23.40;46.40;;;;;;4993982;28;20445;-84
2022/05/14 12:56:57;;;;;;;4.30;2.20;;;23.50;45.60;;;;;;5001991;28;20448;-91
2022/05/14 12:59:27;;;;;;;4.50;2.47;;;23.50;47.20;;;;;;4999723;28;20478;-84
2022/05/14 13:01:59;;;;;;;3.50;2.57;;;23.40;47.90;;;;;;4999885;28;20444;-86
2022/05/14 13:04:38;;;;;;;2.40;2.20;;;23.80;47.00;;;;;;4994696;28;20480;-86
2022/05/14 13:07:08;;;;;;;3.27;2.47;;;23.60;47.80;;;;;;5003126;28;21042;-87
2022/05/14 13:09:36;;;;;;;6.37;1.97;;;23.60;49.60;;;;;;4997053;28;20977;-85
2022/05/14 13:12:02;;;;;;;2.33;1.80;;;23.50;48.60;;;;;;5006509;28;20426;-85
2022/05/14 13:14:37;;;;;;;2.13;1.70;;;23.50;48.30;;;;;;4989068;28;20441;-89
2022/05/14 13:17:07;;;;;;;2.77;2.37;;;23.30;46.90;;;;;;5003098;28;20455;-88
2022/05/14 13:20:00;;;;;;;3.03;2.30;;;23.30;47.30;;;;;;5010745;28;20452;-84
2022/05/14 13:22:33;;;;;;;3.07;2.00;;;23.40;49.10;;;;;;5001234;28;20938;-85
2022/05/14 13:25:02;;;;;;;4.20;2.40;;;23.40;48.50;;;;;;4993472;28;20468;-88
2022/05/14 13:27:36;;;;;;;4.10;3.30;;;24.80;51.10;;;;;;4990193;28;20425;-86
2022/05/14 13:30:13;;;;;;;5.20;2.10;;;23.40;48.10;;;;;;4992320;28;20455;-86
2022/05/14 13:32:39;;;;;;;2.33;2.10;;;23.20;48.00;;;;;;5004669;28;20425;-86